Time;durP1;ratioP1;P1;durP2;ratioP2;P2;SDS_P1;SDS_P2;PMS_P1;PMS_P2;Temp;Humidity;BMP_temperature;BMP_pressure;BME280_temperature;BME280_humidity;BME280_pressure;Samples;Min_cycle;Max_cycle;Signal;HPM_P1;HPM_P2
2022/10/09 00:02:04;;;;;;;12.20;5.55;;;6.10;99.90;;;-144.05;78.16;125687.94;5058476;28;20029;-90
2022/10/09 00:04:35;;;;;;;14.48;5.50;;;6.00;99.90;;;-144.05;77.97;125687.94;5075890;28;20029;-86
2022/10/09 00:07:01;;;;;;;11.35;5.43;;;6.00;99.90;;;-144.05;78.11;125687.94;5082197;28;20040;-88
2022/10/09 00:09:28;;;;;;;11.00;5.78;;;6.00;99.90;;;-144.05;78.10;125687.94;5074578;28;20040;-88
2022/10/09 00:11:54;;;;;;;10.10;5.68;;;6.00;99.90;;;-144.05;78.30;125687.94;5074808;28;20073;-84
2022/10/09 00:14:23;;;;;;;14.02;5.45;;;5.90;99.90;;;-144.05;78.10;125687.94;5090533;28;20028;-85
2022/10/09 00:16:53;;;;;;;15.93;5.45;;;5.90;99.90;;;-144.05;78.21;125687.94;5072237;28;20092;-86
2022/10/09 00:19:29;;;;;;;18.13;5.75;;;5.80;99.90;;;-144.05;78.24;125687.94;5070111;28;20024;-85
2022/10/09 00:22:06;;;;;;;10.35;5.15;;;5.80;99.90;;;-144.05;78.36;125687.94;5086461;28;20187;-88
2022/10/09 00:24:35;;;;;;;10.18;5.60;;;5.70;99.90;;;-144.05;78.34;125687.94;5069293;28;20024;-85
2022/10/09 00:27:09;;;;;;;14.45;6.70;;;5.60;99.90;;;-144.05;78.72;125687.94;5067133;28;20443;-88
2022/10/09 00:29:46;;;;;;;15.68;6.13;;;5.60;99.90;;;-144.05;78.74;125687.94;5056046;28;20029;-87
2022/10/09 00:32:13;;;;;;;10.80;5.00;;;5.60;99.90;;;-144.05;78.73;125687.94;5073493;28;20024;-89
2022/10/09 00:34:43;;;;;;;12.52;4.93;;;5.60;99.90;;;-144.05;78.64;125687.94;5056000;28;20035;-88
2022/10/09 00:37:10;;;;;;;13.82;5.57;;;5.60;99.90;;;-144.05;78.92;125687.94;5072924;28;20036;-88
2022/10/09 00:39:36;;;;;;;11.35;5.45;;;5.60;99.90;;;-144.05;78.88;125687.94;5072193;28;20126;-88
2022/10/09 00:42:04;;;;;;;15.35;5.22;;;5.60;99.90;;;-144.05;78.95;125687.94;5055808;28;20024;-88
2022/10/09 00:45:00;;;;;;;9.10;5.10;;;5.60;99.90;;;-144.05;79.22;125687.94;5056150;28;20066;-88
2022/10/09 00:47:44;;;;;;;12.95;5.28;;;5.60;99.90;;;-144.05;79.19;125687.94;5073283;28;20055;-88
2022/10/09 00:50:34;;;;;;;13.52;6.22;;;5.50;99.90;;;-144.05;79.51;125687.94;5055624;28;20036;-88
2022/10/09 00:53:03;;;;;;;12.18;5.18;;;5.40;99.90;;;-144.05;79.58;125687.94;5055365;28;20089;-85
2022/10/09 00:55:34;;;;;;;9.52;5.55;;;5.50;99.90;;;-144.05;79.58;125687.94;5073591;28;20067;-89
2022/10/09 00:58:11;;;;;;;11.35;5.65;;;5.50;99.90;;;-144.05;79.45;125687.94;5072867;28;20119;-89
2022/10/09 01:00:39;;;;;;;11.60;5.95;;;5.50;99.90;;;-144.05;79.55;125687.94;5055829;28;20079;-86
2022/10/09 01:03:09;;;;;;;14.00;6.57;;;5.40;99.90;;;-144.05;79.70;125687.94;5056237;28;20590;-89
2022/10/09 01:06:21;;;;;;;12.77;6.32;;;5.40;99.90;;;-144.05;79.55;125687.94;5072039;28;20166;-89
2022/10/09 01:09:21;;;;;;;10.23;5.88;;;5.40;99.90;;;-144.05;79.67;125687.94;5055756;28;20028;-89
2022/10/09 01:12:27;;;;;;;9.15;4.82;;;5.40;99.90;;;-144.05;79.83;125687.94;5074207;28;20063;-89
2022/10/09 01:15:15;;;;;;;12.20;6.63;;;5.40;99.90;;;-144.05;79.69;125687.94;5054999;28;20067;-86
2022/10/09 01:19:01;;;;;;;12.88;5.57;;;5.40;99.90;;;-144.05;79.63;125687.94;5055960;28;20054;-87
2022/10/09 01:22:34;;;;;;;11.88;5.40;;;5.40;99.90;;;-144.05;79.83;125687.94;5012370;28;20567;-88
2022/10/09 01:25:43;;;;;;;12.85;5.93;;;5.40;99.90;;;-144.05;79.82;125687.94;4976346;28;20050;-88
2022/10/09 01:28:17;;;;;;;12.13;4.85;;;5.30;99.90;;;-144.05;79.69;125687.94;4988217;28;20538;-90
2022/10/09 01:30:44;;;;;;;11.73;6.57;;;5.30;99.90;;;-144.05;79.77;125687.94;5056546;28;20131;-88
2022/10/09 01:33:11;;;;;;;16.23;5.72;;;5.30;99.90;;;-144.05;79.95;125687.94;5057776;28;20040;-86
2022/10/09 01:35:40;;;;;;;8.88;5.40;;;5.30;99.90;;;-144.05;79.88;125687.94;5074884;28;20035;-89
2022/10/09 01:38:08;;;;;;;11.98;5.30;;;5.30;99.90;;;-144.05;79.70;125687.94;5074000;28;20028;-89
2022/10/09 01:40:37;;;;;;;8.50;4.57;;;5.30;99.90;;;-144.05;79.72;125687.94;5057684;28;20066;-90
2022/10/09 01:43:04;;;;;;;9.43;5.10;;;5.30;99.90;;;-144.05;79.95;125687.94;5075433;28;20368;-87
2022/10/09 01:45:47;;;;;;;14.57;4.95;;;5.20;99.90;;;-144.05;79.97;125687.94;5059564;28;20025;-89
2022/10/09 01:48:24;;;;;;;10.30;5.22;;;5.20;99.90;;;-144.05;79.84;125687.94;5059083;28;20051;-86
2022/10/09 01:51:03;;;;;;;8.77;4.78;;;5.20;99.90;;;-144.05;79.85;125687.94;5059612;28;20040;-89
2022/10/09 01:53:34;;;;;;;15.10;5.10;;;5.20;99.90;;;-144.05;80.07;125687.94;5057182;28;20063;-87
2022/10/09 01:56:20;;;;;;;15.25;5.38;;;5.10;99.90;;;-144.05;80.02;125687.94;5070885;28;20051;-89
2022/10/09 01:59:02;;;;;;;10.48;4.78;;;5.10;99.90;;;-144.05;79.88;125687.94;5072131;28;20028;-89
2022/10/09 02:01:40;;;;;;;16.55;5.80;;;5.10;99.90;;;-144.05;80.33;125687.94;5071237;28;20115;-88
2022/10/09 02:04:18;;;;;;;9.82;5.00;;;5.10;99.90;;;-144.05;80.06;125687.94;5055676;28;20021;-89
2022/10/09 02:06:53;;;;;;;11.05;5.30;;;5.10;99.90;;;-144.05;79.99;125687.94;5073192;28;20451;-89
2022/10/09 02:09:33;;;;;;;10.02;4.75;;;5.10;99.90;;;-144.05;80.02;125687.94;5072991;28;20388;-90
2022/10/09 02:12:11;;;;;;;11.00;5.30;;;5.10;99.90;;;-144.05;79.99;125687.94;5071701;28;20021;-89
2022/10/09 02:14:41;;;;;;;14.82;5.35;;;5.10;99.90;;;-144.05;80.20;125687.94;5055279;28;20025;-87
2022/10/09 02:17:34;;;;;;;8.35;4.72;;;5.00;99.90;;;-144.05;80.34;125687.94;5071568;28;20083;-88
2022/10/09 02:20:30;;;;;;;11.95;5.35;;;5.10;99.90;;;-144.05;80.03;125687.94;5074603;28;20418;-86
2022/10/09 02:23:07;;;;;;;8.75;5.25;;;5.00;99.90;;;-144.05;80.37;125687.94;5065014;28;20036;-84
2022/10/09 02:25:42;;;;;;;18.80;6.30;;;5.00;99.90;;;-144.05;80.42;125687.94;5080126;28;20052;-87
2022/10/09 02:28:12;;;;;;;15.38;5.47;;;5.00;99.90;;;-144.05;80.35;125687.94;5081873;28;20032;-87
2022/10/09 02:31:17;;;;;;;13.20;5.85;;;5.00;99.90;;;-144.05;80.49;125687.94;5085107;28;20081;-86
2022/10/09 02:34:00;;;;;;;12.52;5.72;;;5.00;99.90;;;-144.05;80.58;125687.94;5068166;28;20032;-88
2022/10/09 02:36:34;;;;;;;12.05;5.55;;;4.90;99.90;;;-144.05;80.83;125687.94;5068619;28;20040;-86
2022/10/09 02:39:08;;;;;;;10.93;5.75;;;5.00;99.90;;;-144.05;80.59;125687.94;5068561;28;20035;-87
2022/10/09 02:41:35;;;;;;;12.98;5.55;;;5.00;99.90;;;-144.05;80.66;125687.94;5068123;28;20028;-86
2022/10/09 02:44:03;;;;;;;13.38;6.68;;;5.00;99.90;;;-144.05;80.82;125687.94;5067120;28;20054;-87
2022/10/09 02:46:33;;;;;;;14.20;6.22;;;5.00;99.90;;;-144.05;81.03;125687.94;5066222;28;20024;-87
2022/10/09 02:49:00;;;;;;;9.20;5.57;;;5.00;99.90;;;-144.05;81.26;125687.94;5083108;28;20052;-87
2022/10/09 02:51:29;;;;;;;10.77;5.88;;;5.00;99.90;;;-144.05;81.11;125687.94;5062567;28;20035;-88
2022/10/09 02:53:59;;;;;;;15.25;6.25;;;5.10;99.90;;;-144.05;81.09;125687.94;5079869;28;20044;-88
2022/10/09 02:56:30;;;;;;;15.18;6.65;;;5.10;99.90;;;-144.05;81.64;125687.94;5080282;28;20060;-87
2022/10/09 02:58:59;;;;;;;12.73;6.47;;;5.20;99.90;;;-144.05;81.51;125687.94;5061149;28;20020;-89
2022/10/09 03:01:30;;;;;;;11.45;6.10;;;5.20;99.90;;;-144.05;81.46;125687.94;5075220;28;20033;-86
2022/10/09 03:03:59;;;;;;;14.05;5.78;;;5.20;99.90;;;-144.05;80.97;125687.94;5062788;28;20074;-88
2022/10/09 03:06:30;;;;;;;8.40;5.25;;;5.20;99.90;;;-144.05;81.00;125687.94;5063607;28;20158;-87
2022/10/09 03:09:05;;;;;;;12.75;5.68;;;5.10;99.90;;;-144.05;80.96;125687.94;5082617;28;20047;-86
2022/10/09 03:11:34;;;;;;;12.88;5.45;;;5.10;99.90;;;-144.05;80.87;125687.94;5080510;28;20094;-87
2022/10/09 03:14:19;;;;;;;8.45;5.35;;;5.00;99.90;;;-144.05;80.57;125687.94;5065083;28;20082;-85
2022/10/09 03:17:01;;;;;;;9.55;5.57;;;4.90;99.90;;;-144.05;80.29;125687.94;5082577;28;20074;-85
2022/10/09 03:19:31;;;;;;;11.93;5.43;;;4.90;99.90;;;-144.05;80.34;125687.94;5080626;28;20492;-85
2022/10/09 03:22:01;;;;;;;13.00;5.70;;;4.80;99.90;;;-144.05;80.66;125687.94;5057557;28;20040;-85
2022/10/09 03:24:28;;;;;;;12.02;5.65;;;4.70;99.90;;;-144.05;80.82;125687.94;5074984;28;20089;-85
2022/10/09 03:27:01;;;;;;;17.38;6.60;;;4.70;99.90;;;-144.05;80.86;125687.94;5057802;28;20107;-88
2022/10/09 03:29:27;;;;;;;12.05;5.60;;;4.70;99.90;;;-144.05;80.64;125687.94;5073346;28;20043;-87
2022/10/09 03:31:53;;;;;;;16.27;6.35;;;4.80;99.90;;;-144.05;80.79;125687.94;5074221;28;20119;-85
2022/10/09 03:34:19;;;;;;;7.65;5.25;;;4.70;99.90;;;-144.05;80.67;125687.94;5058112;28;20037;-87
2022/10/09 03:36:45;;;;;;;13.30;5.72;;;4.70;99.90;;;-144.05;80.62;125687.94;5057331;28;20024;-87
2022/10/09 03:39:11;;;;;;;16.60;6.85;;;4.70;99.90;;;-144.05;80.87;125687.94;5057750;28;20021;-84
2022/10/09 03:41:37;;;;;;;13.70;6.95;;;4.70;99.90;;;-144.05;81.04;125687.94;5075011;28;20032;-84
2022/10/09 03:44:03;;;;;;;21.25;7.47;;;4.70;99.90;;;-144.05;81.22;125687.94;5074699;28;20028;-85
2022/10/09 03:46:29;;;;;;;19.92;8.48;;;4.70;99.90;;;-144.05;81.25;125687.94;5058222;28;20124;-86
2022/10/09 03:48:55;;;;;;;14.63;7.18;;;4.70;99.90;;;-144.05;81.19;125687.94;5057762;28;20484;-87
2022/10/09 03:51:21;;;;;;;17.40;7.13;;;4.70;99.90;;;-144.05;81.47;125687.94;5074420;28;20379;-86
2022/10/09 03:53:46;;;;;;;22.23;7.78;;;4.70;99.90;;;-144.05;81.07;125687.94;5075636;28;20107;-87
2022/10/09 03:56:12;;;;;;;16.75;7.80;;;4.70;99.90;;;-144.05;80.98;125687.94;5074415;28;20070;-86
2022/10/09 03:58:38;;;;;;;14.98;7.95;;;4.60;99.90;;;-144.05;81.19;125687.94;5076329;28;20029;-87
2022/10/09 04:01:04;;;;;;;17.60;7.25;;;4.60;99.90;;;-144.05;81.27;125687.94;5058246;28;20039;-87
2022/10/09 04:03:30;;;;;;;15.88;6.93;;;4.60;99.90;;;-144.05;80.87;125687.94;5058459;28;20036;-87
2022/10/09 04:05:55;;;;;;;18.10;7.15;;;4.60;99.90;;;-144.05;81.14;125687.94;5076442;28;20028;-86
2022/10/09 04:08:21;;;;;;;19.25;7.20;;;4.60;99.90;;;-144.05;80.96;125687.94;5058931;28;20173;-83
2022/10/09 04:10:47;;;;;;;17.67;8.50;;;4.60;99.90;;;-144.05;81.81;125687.94;5059074;28;20032;-87
2022/10/09 04:13:13;;;;;;;21.13;9.73;;;4.60;99.90;;;-144.05;81.15;125687.94;5060721;28;20039;-85
2022/10/09 04:15:39;;;;;;;22.23;10.20;;;4.70;99.90;;;-144.05;81.78;125687.94;5060154;28;20029;-88
2022/10/09 04:18:05;;;;;;;20.30;7.80;;;4.80;99.90;;;-144.05;81.19;125687.94;5059537;28;20476;-85
2022/10/09 04:20:31;;;;;;;23.60;8.38;;;4.80;99.90;;;-144.05;80.84;125687.94;5076047;28;20066;-85
2022/10/09 04:22:57;;;;;;;18.30;7.63;;;4.70;99.90;;;-144.05;80.87;125687.94;5075021;28;20182;-86
2022/10/09 04:25:23;;;;;;;15.32;7.32;;;4.60;99.90;;;-144.05;80.91;125687.94;5058884;28;20506;-86
2022/10/09 04:27:49;;;;;;;14.05;7.47;;;4.60;99.90;;;-144.05;80.83;125687.94;5058981;28;20397;-86
2022/10/09 04:30:15;;;;;;;13.32;6.55;;;4.60;99.90;;;-144.05;80.80;125687.94;5058824;28;20028;-87
2022/10/09 04:32:40;;;;;;;15.48;7.35;;;4.50;99.90;;;-144.05;81.04;125687.94;5076858;28;20177;-87
2022/10/09 04:35:07;;;;;;;13.15;6.63;;;4.40;99.90;;;-144.05;80.88;125687.94;5064816;28;20400;-83
2022/10/09 04:37:35;;;;;;;18.85;7.20;;;4.40;99.90;;;-144.05;80.85;125687.94;5078968;28;20628;-85
2022/10/09 04:40:01;;;;;;;17.65;7.20;;;4.40;99.90;;;-144.05;80.84;125687.94;5056041;28;20082;-85
2022/10/09 04:42:27;;;;;;;18.60;6.95;;;4.40;99.90;;;-144.05;80.87;125687.94;5055931;28;20025;-86
2022/10/09 04:44:52;;;;;;;13.60;6.60;;;4.40;99.90;;;-144.05;81.04;125687.94;5073624;28;20388;-85
2022/10/09 04:47:18;;;;;;;19.77;8.43;;;4.30;99.90;;;-144.05;81.13;125687.94;5056090;28;20051;-86
2022/10/09 04:49:44;;;;;;;15.43;6.82;;;4.30;99.90;;;-144.05;81.05;125687.94;5056593;28;20040;-86
2022/10/09 04:52:10;;;;;;;17.90;8.00;;;4.40;99.90;;;-144.05;81.40;125687.94;5074095;28;20039;-85
2022/10/09 04:54:36;;;;;;;15.00;6.88;;;4.40;99.90;;;-144.05;81.16;125687.94;5055832;28;20442;-86
2022/10/09 04:57:01;;;;;;;12.20;6.25;;;4.40;99.90;;;-144.05;80.92;125687.94;5073410;28;20480;-85
2022/10/09 04:59:27;;;;;;;15.95;6.80;;;4.30;99.90;;;-144.05;80.71;125687.94;5056071;28;20025;-85
2022/10/09 05:01:53;;;;;;;16.98;6.63;;;4.30;99.90;;;-144.05;81.07;125687.94;5056465;28;20051;-85
2022/10/09 05:04:19;;;;;;;18.55;7.13;;;4.30;99.90;;;-144.05;81.66;125687.94;5073836;28;20024;-85
2022/10/09 05:06:45;;;;;;;24.20;8.50;;;4.30;99.90;;;-144.05;81.69;125687.94;5055997;28;20075;-85
2022/10/09 05:09:11;;;;;;;15.27;7.50;;;4.40;99.90;;;-144.05;81.10;125687.94;5073599;28;20036;-86
2022/10/09 05:11:36;;;;;;;12.50;7.20;;;4.50;99.90;;;-144.05;81.34;125687.94;5055629;28;20036;-86
2022/10/09 05:14:02;;;;;;;13.80;6.20;;;4.50;99.90;;;-144.05;81.11;125687.94;5073566;28;20028;-88
2022/10/09 05:16:30;;;;;;;14.93;5.85;;;4.40;99.90;;;-144.05;80.92;125687.94;5058499;28;20036;-86
2022/10/09 05:18:59;;;;;;;11.65;6.28;;;4.40;99.90;;;-144.05;81.11;125687.94;5074323;28;20040;-86
2022/10/09 05:21:27;;;;;;;11.20;5.82;;;4.30;99.90;;;-144.05;80.82;125687.94;5075883;28;20052;-85
2022/10/09 05:23:54;;;;;;;8.32;5.20;;;4.30;99.90;;;-144.05;80.55;125687.94;5076053;28;20029;-86
2022/10/09 05:26:24;;;;;;;10.55;5.28;;;4.10;99.90;;;-144.05;80.58;125687.94;5075108;28;20047;-85
2022/10/09 05:28:50;;;;;;;11.30;5.82;;;4.00;99.90;;;-144.05;80.82;125687.94;5075050;28;20089;-85
2022/10/09 05:31:24;;;;;;;9.32;5.20;;;3.90;99.90;;;-144.05;80.87;125687.94;5058132;28;20123;-87
2022/10/09 05:33:51;;;;;;;12.85;6.25;;;3.90;99.90;;;-144.05;80.82;125687.94;5077200;28;20028;-87
2022/10/09 05:36:19;;;;;;;17.85;6.57;;;3.80;99.90;;;-144.05;81.14;125687.94;5074731;28;20039;-85
2022/10/09 05:38:45;;;;;;;14.50;6.43;;;3.90;99.90;;;-144.05;81.32;125687.94;5075381;28;20538;-86
2022/10/09 05:41:15;;;;;;;12.65;5.75;;;3.90;99.90;;;-144.05;81.14;125687.94;5075900;28;20021;-85
2022/10/09 05:43:46;;;;;;;13.27;6.10;;;4.00;99.90;;;-144.05;81.16;125687.94;5076209;28;20052;-85
2022/10/09 05:46:24;;;;;;;13.60;6.25;;;4.10;99.90;;;-144.05;81.31;125687.94;5059507;28;20033;-85
2022/10/09 05:48:55;;;;;;;17.08;7.30;;;4.10;99.90;;;-144.05;81.43;125687.94;5075962;28;20096;-85
2022/10/09 05:51:29;;;;;;;13.77;6.38;;;4.20;99.90;;;-144.05;81.46;125687.94;5077781;28;20050;-85
2022/10/09 05:53:56;;;;;;;16.75;7.50;;;4.20;99.90;;;-144.05;81.69;125687.94;5076798;28;20067;-85
2022/10/09 05:56:30;;;;;;;17.10;7.28;;;4.30;99.90;;;-144.05;81.37;125687.94;5077819;28;20062;-85
2022/10/09 05:59:04;;;;;;;13.95;6.47;;;4.40;99.90;;;-144.05;81.28;125687.94;5077613;28;20480;-86
2022/10/09 06:01:39;;;;;;;10.50;6.03;;;4.40;99.90;;;-144.05;81.05;125687.94;5077798;28;20025;-84
2022/10/09 06:04:10;;;;;;;12.53;5.90;;;4.40;99.90;;;-144.05;81.01;125687.94;5078436;28;20032;-85
2022/10/09 06:06:39;;;;;;;10.90;5.90;;;4.30;99.90;;;-144.05;80.98;125687.94;5081100;28;20029;-86
2022/10/09 06:09:07;;;;;;;14.15;6.28;;;4.30;99.90;;;-144.05;80.90;125687.94;5081504;28;20365;-84
2022/10/09 06:11:38;;;;;;;11.10;6.45;;;4.30;99.90;;;-144.05;81.23;125687.94;5063568;28;20032;-86
2022/10/09 06:14:07;;;;;;;14.13;6.63;;;4.40;99.90;;;-144.05;81.15;125687.94;5062563;28;20064;-87
2022/10/09 06:16:38;;;;;;;14.18;6.57;;;4.40;99.90;;;-144.05;81.00;125687.94;5080820;28;20070;-86
2022/10/09 06:19:09;;;;;;;11.52;6.03;;;4.50;99.90;;;-144.05;81.01;125687.94;5064594;28;20047;-85
2022/10/09 06:21:35;;;;;;;9.57;5.53;;;4.60;99.90;;;-144.05;80.87;125687.94;5080906;28;20461;-87
2022/10/09 06:24:04;;;;;;;11.98;5.88;;;4.70;99.90;;;-144.05;81.21;125687.94;5081774;28;20115;-86
2022/10/09 06:26:30;;;;;;;13.13;6.07;;;4.80;99.90;;;-144.05;81.15;125687.94;5082330;28;20029;-87
2022/10/09 06:29:00;;;;;;;13.07;5.70;;;5.00;99.90;;;-144.05;80.96;125687.94;5081652;28;20097;-86
2022/10/09 06:31:31;;;;;;;12.07;6.65;;;5.10;99.90;;;-144.05;81.10;125687.94;5080748;28;20100;-88
2022/10/09 06:34:02;;;;;;;9.43;5.53;;;5.30;99.90;;;-144.05;80.97;125687.94;5080124;28;20035;-88
2022/10/09 06:36:33;;;;;;;13.80;6.32;;;5.40;99.90;;;-144.05;81.12;125687.94;5080358;28;20043;-87
2022/10/09 06:39:05;;;;;;;12.85;6.20;;;5.60;99.90;;;-144.05;80.71;125687.94;5081464;28;20044;-86
2022/10/09 06:41:32;;;;;;;9.77;5.28;;;5.80;99.90;;;-144.05;80.79;125687.94;5063611;28;20029;-85
2022/10/09 06:44:05;;;;;;;8.55;5.00;;;6.00;99.90;;;-144.05;80.22;125687.94;5063548;28;20020;-86
2022/10/09 06:46:39;;;;;;;7.82;5.00;;;6.20;99.90;;;-144.05;80.01;125687.94;5080435;28;20028;-86
2022/10/09 06:49:09;;;;;;;10.75;5.10;;;6.40;99.90;;;-144.05;79.42;125687.94;5097526;28;20027;-86
2022/10/09 06:51:36;;;;;;;10.82;4.55;;;6.60;99.90;;;-144.05;78.58;125687.94;5092037;28;20289;-85
2022/10/09 06:54:10;;;;;;;11.50;4.88;;;6.60;99.90;;;-144.05;77.56;125687.94;5080375;28;20031;-86
2022/10/09 06:56:36;;;;;;;7.97;4.63;;;6.80;99.90;;;-144.05;76.29;125687.94;5080382;28;20025;-90
2022/10/09 06:59:05;;;;;;;12.35;4.53;;;6.90;99.90;;;-144.05;75.57;125687.94;5063049;28;20027;-84
2022/10/09 07:01:32;;;;;;;7.95;4.68;;;7.00;99.90;;;-144.05;75.33;125687.94;5080280;28;20024;-86
2022/10/09 07:04:08;;;;;;;7.28;4.20;;;7.20;99.90;;;-144.05;74.76;125687.94;5079244;28;20052;-86
2022/10/09 07:06:40;;;;;;;10.38;4.78;;;7.50;99.90;;;-144.05;73.72;125687.94;5063031;28;20086;-84
2022/10/09 07:09:13;;;;;;;10.45;4.10;;;7.80;99.90;;;-144.05;71.57;125687.94;5080100;28;20040;-86
2022/10/09 07:11:45;;;;;;;10.60;4.13;;;8.10;99.90;;;-144.05;71.35;125687.94;5080675;28;20056;-86
2022/10/09 07:14:14;;;;;;;7.60;4.38;;;8.40;99.90;;;-144.05;70.43;125687.94;5078810;28;20035;-84
2022/10/09 07:16:45;;;;;;;9.80;4.90;;;8.70;99.90;;;-144.05;69.26;125687.94;5078625;28;20496;-86
2022/10/09 07:19:13;;;;;;;8.82;4.28;;;9.10;99.90;;;-144.05;68.25;125687.94;5062722;28;20052;-86
2022/10/09 07:21:46;;;;;;;8.05;3.58;;;9.20;99.90;;;-144.05;67.53;125687.94;5078344;28;20029;-85
2022/10/09 07:24:13;;;;;;;8.80;4.03;;;9.50;99.90;;;-144.05;66.44;125687.94;5061738;28;20033;-84
2022/10/09 07:26:44;;;;;;;8.32;3.97;;;9.80;99.90;;;-144.05;65.77;125687.94;5062026;28;20032;-87
2022/10/09 07:29:14;;;;;;;8.55;3.38;;;9.90;99.90;;;-144.05;65.37;125687.94;5078676;28;20035;-87
2022/10/09 07:31:40;;;;;;;7.18;3.70;;;10.10;99.90;;;-144.05;65.34;125687.94;5061361;28;20082;-85
2022/10/09 07:34:06;;;;;;;7.30;3.72;;;10.30;99.90;;;-144.05;64.79;125687.94;5061508;28;20431;-85
2022/10/09 07:36:33;;;;;;;10.60;3.45;;;10.60;99.90;;;-144.05;63.44;125687.94;5077512;28;20029;-85
2022/10/09 07:38:59;;;;;;;5.50;3.25;;;10.90;99.90;;;-144.05;63.31;125687.94;5060543;28;20093;-85
2022/10/09 07:41:28;;;;;;;7.05;2.90;;;11.30;99.90;;;-144.05;62.07;125687.94;5061858;28;20029;-85
2022/10/09 07:43:56;;;;;;;7.05;2.92;;;11.50;99.90;;;-144.05;60.93;125687.94;5062163;28;20195;-87
2022/10/09 07:46:24;;;;;;;5.00;2.35;;;11.70;99.90;;;-144.05;59.72;125687.94;5079030;28;20074;-86
2022/10/09 07:48:51;;;;;;;5.07;2.67;;;11.80;99.90;;;-144.05;60.24;125687.94;5062072;28;20025;-85
2022/10/09 07:51:25;;;;;;;7.53;2.30;;;12.20;99.90;;;-144.05;58.99;125687.94;5079830;28;20060;-86
2022/10/09 07:53:52;;;;;;;8.35;2.30;;;12.30;99.90;;;-144.05;59.25;125687.94;5080276;28;20028;-85
2022/10/09 07:56:35;;;;;;;6.40;2.33;;;12.50;99.90;;;-144.05;58.50;125687.94;5061735;28;20435;-86
2022/10/09 07:59:06;;;;;;;8.90;2.63;;;12.90;99.90;;;-144.05;57.36;125687.94;5061673;28;20472;-85
2022/10/09 08:01:34;;;;;;;5.88;2.05;;;13.20;99.90;;;-144.05;56.42;125687.94;5062627;28;20028;-86
2022/10/09 08:04:02;;;;;;;4.75;2.03;;;13.30;99.90;;;-144.05;55.69;125687.94;5078540;28;20024;-89
2022/10/09 08:06:29;;;;;;;6.50;1.83;;;13.50;99.90;;;-144.05;54.63;125687.94;5061370;28;20035;-86
2022/10/09 08:08:59;;;;;;;8.82;2.20;;;13.60;99.90;;;-144.05;54.45;125687.94;5060844;28;20036;-85
2022/10/09 08:11:28;;;;;;;7.30;1.88;;;13.70;99.90;;;-144.05;54.13;125687.94;5079336;28;20029;-85
2022/10/09 08:13:55;;;;;;;6.20;2.22;;;13.70;99.90;;;-144.05;54.16;125687.94;5062531;28;20028;-85
2022/10/09 08:16:24;;;;;;;7.85;1.60;;;13.90;99.90;;;-144.05;54.19;125687.94;5062203;28;20033;-87
2022/10/09 08:18:57;;;;;;;9.57;2.03;;;14.10;99.90;;;-144.05;53.11;125687.94;5079335;28;20088;-86
2022/10/09 08:21:23;;;;;;;6.15;1.90;;;14.20;99.90;;;-144.05;52.84;125687.94;5064239;28;20075;-83
2022/10/09 08:23:54;;;;;;;8.60;2.38;;;14.30;99.90;;;-144.05;53.41;125687.94;5081965;28;20028;-86
2022/10/09 08:26:24;;;;;;;6.38;1.55;;;14.40;99.90;;;-144.05;53.04;125687.94;5079694;28;20043;-86
2022/10/09 08:29:03;;;;;;;6.63;1.75;;;14.40;99.90;;;-144.05;52.43;125687.94;5062821;28;20088;-89
2022/10/09 08:31:30;;;;;;;5.80;1.80;;;14.50;99.90;;;-144.05;52.47;125687.94;5062477;28;20174;-85
2022/10/09 08:34:01;;;;;;;7.03;2.25;;;14.50;99.90;;;-144.05;52.72;125687.94;5062898;28;20048;-84
2022/10/09 08:36:29;;;;;;;7.72;2.00;;;14.70;99.90;;;-144.05;51.74;125687.94;5079440;28;20036;-87
2022/10/09 08:38:55;;;;;;;5.97;1.80;;;14.90;99.90;;;-144.05;50.91;125687.94;5081165;28;20032;-88
2022/10/09 08:41:53;;;;;;;4.93;1.30;;;15.00;99.90;;;-144.05;50.25;125687.94;5079565;28;20024;-87
2022/10/09 08:44:32;;;;;;;4.97;1.67;;;15.10;99.90;;;-144.05;50.56;125687.94;5061193;28;20036;-87
2022/10/09 08:47:19;;;;;;;6.47;1.60;;;15.20;99.90;;;-144.05;50.62;125687.94;5061259;28;20063;-86
2022/10/09 08:50:17;;;;;;;10.85;1.90;;;15.40;99.90;;;-144.05;49.45;125687.94;5062094;28;20032;-85
2022/10/09 08:53:15;;;;;;;6.45;1.70;;;15.50;99.90;;;-144.05;48.87;125687.94;5080254;28;20044;-86
2022/10/09 08:55:53;;;;;;;6.13;1.77;;;15.60;99.90;;;-144.05;48.86;125687.94;5077822;28;20052;-86
2022/10/09 08:58:29;;;;;;;6.13;1.83;;;15.70;99.90;;;-144.05;48.39;125687.94;5078348;28;20048;-86
2022/10/09 09:01:47;;;;;;;3.38;1.45;;;15.90;99.90;;;-144.05;47.96;125687.94;5063514;28;20078;-85
2022/10/09 09:04:48;;;;;;;5.43;1.85;;;16.00;99.90;;;-144.05;47.82;125687.94;5072482;28;20044;-86
2022/10/09 09:07:31;;;;;;;5.88;1.90;;;16.00;99.90;;;-144.05;46.67;125687.94;5080716;28;20033;-85
2022/10/09 09:10:56;;;;;;;7.05;1.90;;;16.20;99.90;;;-144.05;46.47;125687.94;5061833;28;20361;-86
2022/10/09 09:14:18;;;;;;;4.35;1.60;;;16.20;99.90;;;-144.05;46.06;125687.94;5043396;28;20349;-88
2022/10/09 09:17:21;;;;;;;9.88;2.08;;;16.20;99.90;;;-144.05;46.33;125687.94;5080076;28;20032;-88
2022/10/09 09:20:03;;;;;;;6.72;1.55;;;16.30;99.90;;;-144.05;45.99;125687.94;5080510;28;20033;-86
2022/10/09 09:22:33;;;;;;;3.25;1.38;;;16.30;99.90;;;-144.05;46.49;125687.94;5081751;28;20025;-84
2022/10/09 09:25:12;;;;;;;8.13;2.00;;;16.30;99.90;;;-144.05;45.99;125687.94;5077609;28;20032;-89
2022/10/09 09:27:41;;;;;;;5.68;1.65;;;16.50;99.90;;;-144.05;45.63;125687.94;5076687;28;20052;-84
2022/10/09 09:30:22;;;;;;;5.68;1.63;;;16.70;99.90;;;-144.05;44.95;125687.94;5077390;28;20028;-87
2022/10/09 09:33:21;;;;;;;6.97;1.92;;;16.80;99.90;;;-144.05;45.51;125687.94;5077103;28;20024;-89
2022/10/09 09:36:11;;;;;;;6.22;1.83;;;16.60;99.90;;;-144.05;45.71;125687.94;5077849;28;20033;-87
2022/10/09 09:38:37;;;;;;;5.00;1.75;;;16.80;99.90;;;-144.05;43.75;125687.94;5060113;28;20051;-86
2022/10/09 09:41:04;;;;;;;3.80;1.40;;;17.00;99.90;;;-144.05;44.50;125687.94;5064254;28;20056;-86
2022/10/09 09:43:30;;;;;;;6.45;1.42;;;17.00;99.90;;;-144.05;44.65;125687.94;5082378;28;20039;-86
2022/10/09 09:45:59;;;;;;;7.63;2.28;;;17.00;99.90;;;-144.05;44.25;125687.94;5083332;28;20154;-84
2022/10/09 09:48:38;;;;;;;7.15;2.25;;;17.00;99.90;;;-144.05;44.43;125687.94;5079419;28;20062;-84
2022/10/09 09:51:16;;;;;;;5.72;1.60;;;17.10;99.90;;;-144.05;43.97;125687.94;5080886;28;20024;-88
2022/10/09 09:54:05;;;;;;;6.57;1.38;;;17.00;99.90;;;-144.05;44.82;125687.94;5080543;28;20032;-86
2022/10/09 09:56:41;;;;;;;5.93;1.80;;;16.90;99.90;;;-144.05;44.32;125687.94;5082519;28;20100;-86
2022/10/09 09:59:36;;;;;;;7.80;1.58;;;17.10;99.90;;;-144.05;44.09;125687.94;5064321;28;20095;-88
2022/10/09 10:02:12;;;;;;;8.50;1.63;;;17.30;99.90;;;-144.05;43.06;125687.94;5082531;28;20029;-86
2022/10/09 10:04:52;;;;;;;6.35;1.83;;;17.40;99.90;;;-144.05;42.94;125687.94;5081929;28;20036;-88
2022/10/09 10:07:38;;;;;;;4.20;1.63;;;17.50;99.90;;;-144.05;43.14;125687.94;5064751;28;20025;-88
2022/10/09 10:10:22;;;;;;;5.95;1.58;;;17.60;99.90;;;-144.05;43.02;125687.94;5063803;28;20035;-88
2022/10/09 10:12:51;;;;;;;4.72;1.58;;;17.70;99.90;;;-144.05;42.65;125687.94;5081356;28;20383;-86
2022/10/09 10:15:28;;;;;;;4.63;1.52;;;17.60;99.90;;;-144.05;42.51;125687.94;5063135;28;20089;-83
2022/10/09 10:18:14;;;;;;;6.32;1.73;;;17.70;99.90;;;-144.05;42.43;125687.94;5063521;28;20032;-85
2022/10/09 10:20:51;;;;;;;4.97;1.73;;;18.00;99.90;;;-144.05;42.39;125687.94;5062816;28;20059;-85
2022/10/09 10:23:52;;;;;;;4.45;1.23;;;18.00;99.90;;;-144.05;41.73;125687.94;5062524;28;20033;-87
2022/10/09 10:26:33;;;;;;;4.45;1.30;;;17.90;99.90;;;-144.05;42.91;125687.94;5077224;28;20064;-84
2022/10/09 10:29:36;;;;;;;6.85;1.55;;;17.70;99.90;;;-144.05;43.17;125687.94;5078913;28;20032;-82